sensor_id;sensor_type;location;lat;lon;timestamp;P1;durP1;ratioP1;P2;durP2;ratioP2
3081;SDS011;1551;51.046;7.010;2024-03-06T00:01:06;16.73;;;13.98;;
3081;SDS011;1551;51.046;7.010;2024-03-06T00:03:55;18.17;;;14.95;;
3081;SDS011;1551;51.046;7.010;2024-03-06T00:06:44;18.17;;;14.30;;
3081;SDS011;1551;51.046;7.010;2024-03-06T00:09:33;17.75;;;14.38;;
3081;SDS011;1551;51.046;7.010;2024-03-06T00:12:22;19.63;;;15.20;;
3081;SDS011;1551;51.046;7.010;2024-03-06T00:15:11;18.42;;;14.98;;
3081;SDS011;1551;51.046;7.010;2024-03-06T00:18:00;17.70;;;14.40;;
3081;SDS011;1551;51.046;7.010;2024-03-06T00:20:50;16.83;;;13.80;;
3081;SDS011;1551;51.046;7.010;2024-03-06T00:23:39;17.65;;;13.73;;
3081;SDS011;1551;51.046;7.010;2024-03-06T00:26:27;17.10;;;14.40;;
3081;SDS011;1551;51.046;7.010;2024-03-06T00:29:16;18.55;;;15.52;;
3081;SDS011;1551;51.046;7.010;2024-03-06T00:32:06;20.10;;;14.50;;
3081;SDS011;1551;51.046;7.010;2024-03-06T00:34:55;19.73;;;14.40;;
3081;SDS011;1551;51.046;7.010;2024-03-06T00:37:44;18.20;;;13.90;;
3081;SDS011;1551;51.046;7.010;2024-03-06T00:40:33;16.33;;;12.65;;
3081;SDS011;1551;51.046;7.010;2024-03-06T00:43:22;18.30;;;14.52;;
3081;SDS011;1551;51.046;7.010;2024-03-06T00:46:11;17.83;;;13.75;;
3081;SDS011;1551;51.046;7.010;2024-03-06T00:49:00;17.10;;;14.00;;
3081;SDS011;1551;51.046;7.010;2024-03-06T00:51:49;15.55;;;12.88;;
3081;SDS011;1551;51.046;7.010;2024-03-06T00:54:38;17.70;;;13.30;;
3081;SDS011;1551;51.046;7.010;2024-03-06T00:57:27;17.90;;;15.20;;
3081;SDS011;1551;51.046;7.010;2024-03-06T01:00:16;15.57;;;12.87;;
3081;SDS011;1551;51.046;7.010;2024-03-06T01:03:06;16.67;;;12.52;;
3081;SDS011;1551;51.046;7.010;2024-03-06T01:05:55;16.67;;;13.85;;
3081;SDS011;1551;51.046;7.010;2024-03-06T01:08:44;19.13;;;14.50;;
3081;SDS011;1551;51.046;7.010;2024-03-06T01:11:33;17.75;;;13.70;;
3081;SDS011;1551;51.046;7.010;2024-03-06T01:14:22;16.65;;;13.85;;
3081;SDS011;1551;51.046;7.010;2024-03-06T01:17:11;16.83;;;13.50;;
3081;SDS011;1551;51.046;7.010;2024-03-06T01:20:00;15.73;;;13.02;;
3081;SDS011;1551;51.046;7.010;2024-03-06T01:22:50;17.33;;;13.45;;
3081;SDS011;1551;51.046;7.010;2024-03-06T01:25:39;17.50;;;13.70;;
3081;SDS011;1551;51.046;7.010;2024-03-06T01:28:28;15.43;;;13.43;;
3081;SDS011;1551;51.046;7.010;2024-03-06T01:31:17;18.83;;;13.73;;
3081;SDS011;1551;51.046;7.010;2024-03-06T01:34:06;17.02;;;14.02;;
3081;SDS011;1551;51.046;7.010;2024-03-06T01:36:55;17.60;;;13.57;;
3081;SDS011;1551;51.046;7.010;2024-03-06T01:39:44;18.05;;;14.38;;
3081;SDS011;1551;51.046;7.010;2024-03-06T01:42:33;17.80;;;13.70;;
3081;SDS011;1551;51.046;7.010;2024-03-06T01:45:22;15.75;;;13.65;;
3081;SDS011;1551;51.046;7.010;2024-03-06T01:48:11;17.63;;;13.00;;
3081;SDS011;1551;51.046;7.010;2024-03-06T01:51:01;15.27;;;13.13;;
3081;SDS011;1551;51.046;7.010;2024-03-06T01:53:53;16.38;;;13.18;;
3081;SDS011;1551;51.046;7.010;2024-03-06T01:56:46;16.85;;;13.23;;
3081;SDS011;1551;51.046;7.010;2024-03-06T01:59:38;18.80;;;13.98;;
3081;SDS011;1551;51.046;7.010;2024-03-06T02:02:27;16.85;;;13.43;;
3081;SDS011;1551;51.046;7.010;2024-03-06T02:05:16;18.10;;;14.30;;
3081;SDS011;1551;51.046;7.010;2024-03-06T02:08:05;17.83;;;13.60;;
3081;SDS011;1551;51.046;7.010;2024-03-06T02:10:55;16.98;;;13.00;;
3081;SDS011;1551;51.046;7.010;2024-03-06T02:13:43;20.02;;;14.68;;
3081;SDS011;1551;51.046;7.010;2024-03-06T02:16:33;20.73;;;14.77;;
3081;SDS011;1551;51.046;7.010;2024-03-06T02:19:22;18.00;;;15.00;;
3081;SDS011;1551;51.046;7.010;2024-03-06T02:22:11;18.85;;;13.95;;
3081;SDS011;1551;51.046;7.010;2024-03-06T02:25:00;21.88;;;15.00;;
3081;SDS011;1551;51.046;7.010;2024-03-06T02:27:49;23.23;;;16.70;;
3081;SDS011;1551;51.046;7.010;2024-03-06T02:30:38;21.83;;;16.80;;
3081;SDS011;1551;51.046;7.010;2024-03-06T02:33:27;21.58;;;15.90;;
3081;SDS011;1551;51.046;7.010;2024-03-06T02:36:16;22.48;;;16.65;;
3081;SDS011;1551;51.046;7.010;2024-03-06T02:39:06;18.63;;;15.55;;
3081;SDS011;1551;51.046;7.010;2024-03-06T02:41:57;19.00;;;15.80;;
3081;SDS011;1551;51.046;7.010;2024-03-06T02:44:46;23.55;;;16.52;;
3081;SDS011;1551;51.046;7.010;2024-03-06T02:47:35;21.73;;;16.27;;
3081;SDS011;1551;51.046;7.010;2024-03-06T02:50:24;18.67;;;15.20;;
3081;SDS011;1551;51.046;7.010;2024-03-06T02:53:13;19.15;;;14.82;;
3081;SDS011;1551;51.046;7.010;2024-03-06T02:56:03;20.65;;;15.38;;
3081;SDS011;1551;51.046;7.010;2024-03-06T02:58:52;21.30;;;16.35;;
3081;SDS011;1551;51.046;7.010;2024-03-06T03:01:41;22.92;;;17.05;;
3081;SDS011;1551;51.046;7.010;2024-03-06T03:04:30;19.83;;;15.70;;
3081;SDS011;1551;51.046;7.010;2024-03-06T03:07:19;21.63;;;16.50;;
3081;SDS011;1551;51.046;7.010;2024-03-06T03:10:08;21.13;;;16.63;;
3081;SDS011;1551;51.046;7.010;2024-03-06T03:12:59;20.45;;;15.00;;
3081;SDS011;1551;51.046;7.010;2024-03-06T03:15:48;21.53;;;16.20;;
3081;SDS011;1551;51.046;7.010;2024-03-06T03:18:37;21.50;;;17.45;;
3081;SDS011;1551;51.046;7.010;2024-03-06T03:21:26;19.92;;;15.30;;
3081;SDS011;1551;51.046;7.010;2024-03-06T03:24:15;21.83;;;16.23;;
3081;SDS011;1551;51.046;7.010;2024-03-06T03:27:05;23.02;;;17.52;;
3081;SDS011;1551;51.046;7.010;2024-03-06T03:29:55;21.52;;;15.50;;
3081;SDS011;1551;51.046;7.010;2024-03-06T03:32:44;22.07;;;16.90;;
3081;SDS011;1551;51.046;7.010;2024-03-06T03:35:34;19.80;;;15.05;;
3081;SDS011;1551;51.046;7.010;2024-03-06T03:38:22;20.13;;;15.32;;
3081;SDS011;1551;51.046;7.010;2024-03-06T03:41:12;20.02;;;14.95;;
3081;SDS011;1551;51.046;7.010;2024-03-06T03:44:01;19.40;;;14.93;;
3081;SDS011;1551;51.046;7.010;2024-03-06T03:46:50;20.52;;;15.77;;
3081;SDS011;1551;51.046;7.010;2024-03-06T03:49:39;18.00;;;14.75;;
3081;SDS011;1551;51.046;7.010;2024-03-06T03:52:29;20.50;;;16.17;;
3081;SDS011;1551;51.046;7.010;2024-03-06T03:55:18;23.25;;;16.58;;
3081;SDS011;1551;51.046;7.010;2024-03-06T03:58:07;21.70;;;16.92;;
3081;SDS011;1551;51.046;7.010;2024-03-06T04:00:56;19.55;;;15.30;;
3081;SDS011;1551;51.046;7.010;2024-03-06T04:03:45;21.20;;;15.85;;
3081;SDS011;1551;51.046;7.010;2024-03-06T04:06:34;21.92;;;15.98;;
3081;SDS011;1551;51.046;7.010;2024-03-06T04:09:23;20.40;;;16.93;;
3081;SDS011;1551;51.046;7.010;2024-03-06T04:12:12;20.45;;;15.48;;
3081;SDS011;1551;51.046;7.010;2024-03-06T04:15:01;21.45;;;15.70;;
3081;SDS011;1551;51.046;7.010;2024-03-06T04:17:50;19.27;;;15.73;;
3081;SDS011;1551;51.046;7.010;2024-03-06T04:20:38;22.65;;;16.80;;
3081;SDS011;1551;51.046;7.010;2024-03-06T04:23:28;21.25;;;16.08;;
3081;SDS011;1551;51.046;7.010;2024-03-06T04:26:17;17.83;;;14.13;;
3081;SDS011;1551;51.046;7.010;2024-03-06T04:29:06;18.75;;;15.02;;
3081;SDS011;1551;51.046;7.010;2024-03-06T04:31:55;21.98;;;16.02;;
3081;SDS011;1551;51.046;7.010;2024-03-06T04:34:44;21.35;;;17.52;;
3081;SDS011;1551;51.046;7.010;2024-03-06T04:37:33;18.95;;;15.60;;
3081;SDS011;1551;51.046;7.010;2024-03-06T04:40:22;17.27;;;14.35;;
3081;SDS011;1551;51.046;7.010;2024-03-06T04:43:13;17.63;;;14.68;;
3081;SDS011;1551;51.046;7.010;2024-03-06T04:46:02;18.17;;;14.40;;
3081;SDS011;1551;51.046;7.010;2024-03-06T04:48:52;20.15;;;15.43;;
3081;SDS011;1551;51.046;7.010;2024-03-06T04:51:42;19.27;;;14.68;;
3081;SDS011;1551;51.046;7.010;2024-03-06T04:54:31;18.65;;;14.88;;
3081;SDS011;1551;51.046;7.010;2024-03-06T04:57:20;18.45;;;15.43;;
3081;SDS011;1551;51.046;7.010;2024-03-06T05:00:10;19.70;;;15.45;;
3081;SDS011;1551;51.046;7.010;2024-03-06T05:02:59;21.60;;;16.00;;
3081;SDS011;1551;51.046;7.010;2024-03-06T05:05:48;19.58;;;15.48;;
3081;SDS011;1551;51.046;7.010;2024-03-06T05:08:37;19.42;;;15.30;;
3081;SDS011;1551;51.046;7.010;2024-03-06T05:11:26;19.23;;;15.65;;
3081;SDS011;1551;51.046;7.010;2024-03-06T05:14:16;19.95;;;15.70;;
3081;SDS011;1551;51.046;7.010;2024-03-06T05:17:05;17.77;;;15.23;;
3081;SDS011;1551;51.046;7.010;2024-03-06T05:19:54;20.10;;;16.33;;
3081;SDS011;1551;51.046;7.010;2024-03-06T05:22:43;17.90;;;14.83;;
3081;SDS011;1551;51.046;7.010;2024-03-06T05:25:32;20.13;;;15.80;;
3081;SDS011;1551;51.046;7.010;2024-03-06T05:28:21;19.58;;;14.88;;
3081;SDS011;1551;51.046;7.010;2024-03-06T05:31:17;18.50;;;14.80;;
3081;SDS011;1551;51.046;7.010;2024-03-06T05:34:11;18.67;;;14.77;;
3081;SDS011;1551;51.046;7.010;2024-03-06T05:37:01;19.35;;;14.30;;
3081;SDS011;1551;51.046;7.010;2024-03-06T05:39:52;17.42;;;13.63;;
3081;SDS011;1551;51.046;7.010;2024-03-06T05:42:43;17.93;;;13.53;;
3081;SDS011;1551;51.046;7.010;2024-03-06T05:45:31;18.90;;;14.88;;
3081;SDS011;1551;51.046;7.010;2024-03-06T05:48:21;18.00;;;14.07;;
3081;SDS011;1551;51.046;7.010;2024-03-06T05:51:10;15.85;;;13.18;;
3081;SDS011;1551;51.046;7.010;2024-03-06T05:53:59;20.45;;;14.38;;
3081;SDS011;1551;51.046;7.010;2024-03-06T05:56:48;19.42;;;14.52;;
3081;SDS011;1551;51.046;7.010;2024-03-06T05:59:40;17.27;;;13.75;;
3081;SDS011;1551;51.046;7.010;2024-03-06T06:02:29;18.38;;;14.52;;
3081;SDS011;1551;51.046;7.010;2024-03-06T06:05:18;18.60;;;14.77;;
3081;SDS011;1551;51.046;7.010;2024-03-06T06:08:08;17.80;;;13.80;;
3081;SDS011;1551;51.046;7.010;2024-03-06T06:10:57;20.60;;;15.00;;
3081;SDS011;1551;51.046;7.010;2024-03-06T06:13:46;16.75;;;13.93;;
3081;SDS011;1551;51.046;7.010;2024-03-06T06:16:36;18.23;;;13.75;;
3081;SDS011;1551;51.046;7.010;2024-03-06T06:19:29;18.63;;;14.05;;
3081;SDS011;1551;51.046;7.010;2024-03-06T06:22:18;20.57;;;15.50;;
3081;SDS011;1551;51.046;7.010;2024-03-06T06:25:07;16.40;;;13.10;;
3081;SDS011;1551;51.046;7.010;2024-03-06T06:27:56;18.63;;;14.90;;
3081;SDS011;1551;51.046;7.010;2024-03-06T06:30:46;18.90;;;13.68;;
3081;SDS011;1551;51.046;7.010;2024-03-06T06:33:35;18.48;;;14.35;;
3081;SDS011;1551;51.046;7.010;2024-03-06T06:36:24;18.08;;;13.43;;
3081;SDS011;1551;51.046;7.010;2024-03-06T06:39:13;17.42;;;12.80;;
3081;SDS011;1551;51.046;7.010;2024-03-06T06:42:02;18.38;;;14.00;;
3081;SDS011;1551;51.046;7.010;2024-03-06T06:44:51;17.40;;;12.73;;
3081;SDS011;1551;51.046;7.010;2024-03-06T06:47:42;16.17;;;13.05;;
3081;SDS011;1551;51.046;7.010;2024-03-06T06:50:31;15.93;;;13.20;;
3081;SDS011;1551;51.046;7.010;2024-03-06T06:53:22;17.45;;;13.85;;
3081;SDS011;1551;51.046;7.010;2024-03-06T06:56:11;16.90;;;13.60;;
3081;SDS011;1551;51.046;7.010;2024-03-06T06:59:00;17.95;;;13.93;;
3081;SDS011;1551;51.046;7.010;2024-03-06T07:01:49;17.20;;;13.75;;
3081;SDS011;1551;51.046;7.010;2024-03-06T07:04:38;17.57;;;14.20;;
3081;SDS011;1551;51.046;7.010;2024-03-06T07:07:27;18.45;;;13.50;;
3081;SDS011;1551;51.046;7.010;2024-03-06T07:10:16;18.27;;;14.15;;
3081;SDS011;1551;51.046;7.010;2024-03-06T07:13:05;17.85;;;14.07;;
3081;SDS011;1551;51.046;7.010;2024-03-06T07:15:54;18.90;;;13.68;;
3081;SDS011;1551;51.046;7.010;2024-03-06T07:18:43;18.13;;;13.75;;
3081;SDS011;1551;51.046;7.010;2024-03-06T07:21:32;18.65;;;14.35;;
3081;SDS011;1551;51.046;7.010;2024-03-06T07:24:21;18.20;;;14.33;;
3081;SDS011;1551;51.046;7.010;2024-03-06T07:27:10;20.08;;;14.70;;
3081;SDS011;1551;51.046;7.010;2024-03-06T07:30:00;17.73;;;13.95;;
3081;SDS011;1551;51.046;7.010;2024-03-06T07:32:50;18.60;;;13.70;;
3081;SDS011;1551;51.046;7.010;2024-03-06T07:35:39;18.63;;;13.70;;
3081;SDS011;1551;51.046;7.010;2024-03-06T07:38:28;19.52;;;15.32;;
3081;SDS011;1551;51.046;7.010;2024-03-06T07:41:17;19.58;;;15.35;;
3081;SDS011;1551;51.046;7.010;2024-03-06T07:44:06;18.47;;;14.17;;
3081;SDS011;1551;51.046;7.010;2024-03-06T07:46:57;14.80;;;11.93;;
3081;SDS011;1551;51.046;7.010;2024-03-06T07:49:46;13.88;;;11.43;;
3081;SDS011;1551;51.046;7.010;2024-03-06T07:52:35;18.25;;;11.68;;
3081;SDS011;1551;51.046;7.010;2024-03-06T07:55:24;15.27;;;10.60;;
3081;SDS011;1551;51.046;7.010;2024-03-06T07:58:13;13.90;;;11.80;;
3081;SDS011;1551;51.046;7.010;2024-03-06T08:01:02;15.13;;;10.75;;
3081;SDS011;1551;51.046;7.010;2024-03-06T08:03:52;14.43;;;10.88;;
3081;SDS011;1551;51.046;7.010;2024-03-06T08:06:42;14.65;;;11.40;;
3081;SDS011;1551;51.046;7.010;2024-03-06T08:09:31;31.50;;;19.50;;
3081;SDS011;1551;51.046;7.010;2024-03-06T08:12:20;24.27;;;15.68;;
3081;SDS011;1551;51.046;7.010;2024-03-06T08:15:13;22.35;;;15.93;;
3081;SDS011;1551;51.046;7.010;2024-03-06T08:18:03;27.65;;;19.38;;
3081;SDS011;1551;51.046;7.010;2024-03-06T08:20:52;28.40;;;20.05;;
3081;SDS011;1551;51.046;7.010;2024-03-06T08:23:41;31.40;;;20.10;;
3081;SDS011;1551;51.046;7.010;2024-03-06T08:26:32;30.48;;;21.90;;
3081;SDS011;1551;51.046;7.010;2024-03-06T08:29:21;27.42;;;19.38;;
3081;SDS011;1551;51.046;7.010;2024-03-06T08:32:10;25.27;;;18.37;;
3081;SDS011;1551;51.046;7.010;2024-03-06T08:34:59;22.95;;;17.70;;
3081;SDS011;1551;51.046;7.010;2024-03-06T08:37:48;26.67;;;18.03;;
3081;SDS011;1551;51.046;7.010;2024-03-06T08:40:37;21.95;;;17.35;;
3081;SDS011;1551;51.046;7.010;2024-03-06T08:43:27;26.55;;;19.40;;
3081;SDS011;1551;51.046;7.010;2024-03-06T08:46:16;25.50;;;18.90;;
3081;SDS011;1551;51.046;7.010;2024-03-06T08:49:05;27.80;;;20.25;;
3081;SDS011;1551;51.046;7.010;2024-03-06T08:51:54;24.15;;;18.75;;
3081;SDS011;1551;51.046;7.010;2024-03-06T08:54:43;26.48;;;19.42;;
3081;SDS011;1551;51.046;7.010;2024-03-06T08:57:32;27.45;;;20.20;;
3081;SDS011;1551;51.046;7.010;2024-03-06T09:00:22;26.42;;;19.35;;
3081;SDS011;1551;51.046;7.010;2024-03-06T09:03:10;28.05;;;21.35;;
3081;SDS011;1551;51.046;7.010;2024-03-06T09:05:59;29.38;;;19.88;;
3081;SDS011;1551;51.046;7.010;2024-03-06T09:08:48;26.55;;;19.95;;
3081;SDS011;1551;51.046;7.010;2024-03-06T09:11:37;25.08;;;19.30;;
3081;SDS011;1551;51.046;7.010;2024-03-06T09:14:26;24.00;;;19.08;;
3081;SDS011;1551;51.046;7.010;2024-03-06T09:17:15;26.13;;;21.25;;
3081;SDS011;1551;51.046;7.010;2024-03-06T09:20:05;24.67;;;19.33;;
3081;SDS011;1551;51.046;7.010;2024-03-06T09:22:59;25.95;;;20.30;;
3081;SDS011;1551;51.046;7.010;2024-03-06T09:25:48;27.63;;;19.50;;
3081;SDS011;1551;51.046;7.010;2024-03-06T09:28:38;25.55;;;19.23;;
3081;SDS011;1551;51.046;7.010;2024-03-06T09:31:27;26.37;;;18.73;;
3081;SDS011;1551;51.046;7.010;2024-03-06T09:34:16;27.60;;;19.30;;
3081;SDS011;1551;51.046;7.010;2024-03-06T09:37:05;24.30;;;18.90;;
3081;SDS011;1551;51.046;7.010;2024-03-06T09:39:54;24.20;;;19.05;;
3081;SDS011;1551;51.046;7.010;2024-03-06T09:42:44;29.77;;;21.17;;
3081;SDS011;1551;51.046;7.010;2024-03-06T09:45:33;28.90;;;20.95;;
3081;SDS011;1551;51.046;7.010;2024-03-06T09:48:22;31.70;;;22.90;;
3081;SDS011;1551;51.046;7.010;2024-03-06T09:51:11;31.98;;;22.42;;
3081;SDS011;1551;51.046;7.010;2024-03-06T09:54:01;30.97;;;22.60;;
3081;SDS011;1551;51.046;7.010;2024-03-06T09:56:51;34.75;;;23.13;;
3081;SDS011;1551;51.046;7.010;2024-03-06T09:59:40;30.10;;;23.07;;
3081;SDS011;1551;51.046;7.010;2024-03-06T10:02:39;32.85;;;22.88;;
3081;SDS011;1551;51.046;7.010;2024-03-06T10:05:37;29.73;;;22.55;;
3081;SDS011;1551;51.046;7.010;2024-03-06T10:08:26;32.80;;;23.15;;
3081;SDS011;1551;51.046;7.010;2024-03-06T10:11:17;31.02;;;22.35;;
3081;SDS011;1551;51.046;7.010;2024-03-06T10:14:07;30.80;;;22.60;;
3081;SDS011;1551;51.046;7.010;2024-03-06T10:16:59;32.67;;;22.65;;
3081;SDS011;1551;51.046;7.010;2024-03-06T10:19:49;32.70;;;23.30;;
3081;SDS011;1551;51.046;7.010;2024-03-06T10:22:41;32.08;;;23.17;;
3081;SDS011;1551;51.046;7.010;2024-03-06T10:25:30;28.55;;;22.33;;
3081;SDS011;1551;51.046;7.010;2024-03-06T10:28:19;31.52;;;23.38;;
3081;SDS011;1551;51.046;7.010;2024-03-06T10:31:10;24.75;;;20.90;;
3081;SDS011;1551;51.046;7.010;2024-03-06T10:33:59;30.67;;;22.55;;
3081;SDS011;1551;51.046;7.010;2024-03-06T10:36:49;30.65;;;22.27;;
3081;SDS011;1551;51.046;7.010;2024-03-06T10:39:48;27.53;;;21.70;;
3081;SDS011;1551;51.046;7.010;2024-03-06T10:42:41;28.48;;;21.83;;
3081;SDS011;1551;51.046;7.010;2024-03-06T10:45:41;23.23;;;19.40;;
3081;SDS011;1551;51.046;7.010;2024-03-06T10:48:38;28.10;;;20.58;;
3081;SDS011;1551;51.046;7.010;2024-03-06T10:51:29;25.27;;;19.90;;
3081;SDS011;1551;51.046;7.010;2024-03-06T10:54:19;27.10;;;19.55;;
3081;SDS011;1551;51.046;7.010;2024-03-06T10:57:11;26.80;;;20.23;;
3081;SDS011;1551;51.046;7.010;2024-03-06T11:00:01;24.08;;;19.30;;
3081;SDS011;1551;51.046;7.010;2024-03-06T11:02:51;22.83;;;17.90;;
3081;SDS011;1551;51.046;7.010;2024-03-06T11:05:42;20.90;;;16.65;;
3081;SDS011;1551;51.046;7.010;2024-03-06T11:08:34;20.88;;;17.58;;
3081;SDS011;1551;51.046;7.010;2024-03-06T11:11:24;44.97;;;27.57;;
3081;SDS011;1551;51.046;7.010;2024-03-06T11:14:13;20.17;;;16.60;;
3081;SDS011;1551;51.046;7.010;2024-03-06T11:17:04;19.67;;;17.10;;
3081;SDS011;1551;51.046;7.010;2024-03-06T11:28:36;18.20;;;16.20;;
3081;SDS011;1551;51.046;7.010;2024-03-06T11:31:27;18.63;;;15.65;;
3081;SDS011;1551;51.046;7.010;2024-03-06T11:34:16;18.85;;;15.70;;
3081;SDS011;1551;51.046;7.010;2024-03-06T11:37:06;18.38;;;15.45;;
3081;SDS011;1551;51.046;7.010;2024-03-06T11:39:59;18.05;;;15.70;;
3081;SDS011;1551;51.046;7.010;2024-03-06T11:42:49;17.85;;;15.82;;
3081;SDS011;1551;51.046;7.010;2024-03-06T11:45:45;18.13;;;15.98;;
3081;SDS011;1551;51.046;7.010;2024-03-06T11:48:35;19.65;;;16.00;;
3081;SDS011;1551;51.046;7.010;2024-03-06T11:51:25;20.38;;;17.17;;
3081;SDS011;1551;51.046;7.010;2024-03-06T11:54:15;17.23;;;15.43;;
3081;SDS011;1551;51.046;7.010;2024-03-06T11:57:05;16.63;;;14.93;;
3081;SDS011;1551;51.046;7.010;2024-03-06T11:59:55;17.63;;;15.73;;
3081;SDS011;1551;51.046;7.010;2024-03-06T12:02:44;17.25;;;15.45;;
3081;SDS011;1551;51.046;7.010;2024-03-06T12:05:34;16.58;;;14.88;;
3081;SDS011;1551;51.046;7.010;2024-03-06T12:08:23;13.07;;;11.68;;
3081;SDS011;1551;51.046;7.010;2024-03-06T12:11:12;15.23;;;13.60;;
3081;SDS011;1551;51.046;7.010;2024-03-06T12:14:01;17.70;;;14.23;;
3081;SDS011;1551;51.046;7.010;2024-03-06T12:19:45;16.00;;;14.30;;
3081;SDS011;1551;51.046;7.010;2024-03-06T12:22:34;15.10;;;13.25;;
3081;SDS011;1551;51.046;7.010;2024-03-06T12:25:24;15.85;;;13.82;;
3081;SDS011;1551;51.046;7.010;2024-03-06T12:28:14;15.82;;;13.23;;
3081;SDS011;1551;51.046;7.010;2024-03-06T12:31:03;14.10;;;12.40;;
3081;SDS011;1551;51.046;7.010;2024-03-06T12:33:56;13.25;;;11.63;;
3081;SDS011;1551;51.046;7.010;2024-03-06T12:36:47;12.47;;;11.17;;
3081;SDS011;1551;51.046;7.010;2024-03-06T12:39:35;10.98;;;9.40;;
3081;SDS011;1551;51.046;7.010;2024-03-06T12:42:25;11.20;;;10.00;;
3081;SDS011;1551;51.046;7.010;2024-03-06T12:45:14;10.13;;;8.80;;
3081;SDS011;1551;51.046;7.010;2024-03-06T12:48:03;7.10;;;6.30;;
3081;SDS011;1551;51.046;7.010;2024-03-06T12:50:53;6.80;;;5.10;;
3081;SDS011;1551;51.046;7.010;2024-03-06T12:53:43;8.10;;;6.15;;
3081;SDS011;1551;51.046;7.010;2024-03-06T12:56:32;6.22;;;4.70;;
3081;SDS011;1551;51.046;7.010;2024-03-06T12:59:21;7.05;;;6.30;;
3081;SDS011;1551;51.046;7.010;2024-03-06T13:02:10;8.65;;;6.93;;
3081;SDS011;1551;51.046;7.010;2024-03-06T13:04:59;7.80;;;6.68;;
3081;SDS011;1551;51.046;7.010;2024-03-06T13:07:48;8.00;;;7.20;;
3081;SDS011;1551;51.046;7.010;2024-03-06T13:10:37;9.98;;;7.03;;
3081;SDS011;1551;51.046;7.010;2024-03-06T13:13:26;8.95;;;7.75;;
3081;SDS011;1551;51.046;7.010;2024-03-06T13:16:17;9.75;;;8.75;;
3081;SDS011;1551;51.046;7.010;2024-03-06T13:19:06;10.80;;;9.70;;
3081;SDS011;1551;51.046;7.010;2024-03-06T13:21:56;13.27;;;11.98;;
3081;SDS011;1551;51.046;7.010;2024-03-06T13:24:45;11.38;;;10.18;;
3081;SDS011;1551;51.046;7.010;2024-03-06T13:27:34;11.60;;;10.40;;
3081;SDS011;1551;51.046;7.010;2024-03-06T13:30:23;13.03;;;10.60;;
3081;SDS011;1551;51.046;7.010;2024-03-06T13:33:13;12.48;;;11.27;;
3081;SDS011;1551;51.046;7.010;2024-03-06T13:36:02;10.98;;;9.70;;
3081;SDS011;1551;51.046;7.010;2024-03-06T13:38:52;11.85;;;10.07;;
3081;SDS011;1551;51.046;7.010;2024-03-06T13:41:41;10.03;;;9.03;;
3081;SDS011;1551;51.046;7.010;2024-03-06T13:44:30;8.93;;;8.02;;
3081;SDS011;1551;51.046;7.010;2024-03-06T13:47:19;9.80;;;8.52;;
3081;SDS011;1551;51.046;7.010;2024-03-06T13:50:08;9.10;;;7.68;;
3081;SDS011;1551;51.046;7.010;2024-03-06T13:53:01;9.50;;;8.10;;
3081;SDS011;1551;51.046;7.010;2024-03-06T13:55:50;9.93;;;7.22;;
3081;SDS011;1551;51.046;7.010;2024-03-06T13:58:40;8.55;;;7.65;;
3081;SDS011;1551;51.046;7.010;2024-03-06T14:01:29;8.10;;;7.30;;
3081;SDS011;1551;51.046;7.010;2024-03-06T14:04:18;9.38;;;8.38;;
3081;SDS011;1551;51.046;7.010;2024-03-06T14:07:07;14.30;;;12.15;;
3081;SDS011;1551;51.046;7.010;2024-03-06T14:09:56;12.10;;;10.90;;
3081;SDS011;1551;51.046;7.010;2024-03-06T14:12:45;12.23;;;10.90;;
3081;SDS011;1551;51.046;7.010;2024-03-06T14:15:34;11.55;;;8.77;;
3081;SDS011;1551;51.046;7.010;2024-03-06T14:18:24;9.90;;;8.90;;
3081;SDS011;1551;51.046;7.010;2024-03-06T14:21:13;11.30;;;10.10;;
3081;SDS011;1551;51.046;7.010;2024-03-06T14:24:02;10.80;;;9.52;;
3081;SDS011;1551;51.046;7.010;2024-03-06T14:26:52;11.00;;;9.57;;
3081;SDS011;1551;51.046;7.010;2024-03-06T14:29:41;10.60;;;8.40;;
3081;SDS011;1551;51.046;7.010;2024-03-06T14:32:30;9.90;;;8.90;;
3081;SDS011;1551;51.046;7.010;2024-03-06T14:35:19;9.70;;;8.10;;
3081;SDS011;1551;51.046;7.010;2024-03-06T14:38:08;11.10;;;8.65;;
3081;SDS011;1551;51.046;7.010;2024-03-06T14:40:57;9.95;;;8.50;;
3081;SDS011;1551;51.046;7.010;2024-03-06T14:43:46;9.50;;;8.60;;
3081;SDS011;1551;51.046;7.010;2024-03-06T14:46:35;10.73;;;8.13;;
3081;SDS011;1551;51.046;7.010;2024-03-06T14:49:24;8.55;;;7.65;;
3081;SDS011;1551;51.046;7.010;2024-03-06T14:52:14;9.70;;;8.20;;
3081;SDS011;1551;51.046;7.010;2024-03-06T14:55:03;9.17;;;8.20;;
3081;SDS011;1551;51.046;7.010;2024-03-06T14:57:53;8.27;;;7.30;;
3081;SDS011;1551;51.046;7.010;2024-03-06T15:00:42;10.27;;;7.80;;
3081;SDS011;1551;51.046;7.010;2024-03-06T15:03:31;8.38;;;7.35;;
3081;SDS011;1551;51.046;7.010;2024-03-06T15:06:20;7.45;;;6.65;;
3081;SDS011;1551;51.046;7.010;2024-03-06T15:09:09;11.55;;;7.32;;
3081;SDS011;1551;51.046;7.010;2024-03-06T15:12:00;9.07;;;7.18;;
3081;SDS011;1551;51.046;7.010;2024-03-06T15:14:52;10.60;;;7.70;;
3081;SDS011;1551;51.046;7.010;2024-03-06T15:17:43;8.02;;;7.22;;
3081;SDS011;1551;51.046;7.010;2024-03-06T15:20:35;9.40;;;7.93;;
3081;SDS011;1551;51.046;7.010;2024-03-06T15:23:24;8.52;;;7.53;;
3081;SDS011;1551;51.046;7.010;2024-03-06T15:26:13;9.43;;;7.80;;
3081;SDS011;1551;51.046;7.010;2024-03-06T15:29:02;9.82;;;8.45;;
3081;SDS011;1551;51.046;7.010;2024-03-06T15:31:53;10.20;;;8.10;;
3081;SDS011;1551;51.046;7.010;2024-03-06T15:34:42;9.90;;;8.45;;
3081;SDS011;1551;51.046;7.010;2024-03-06T15:37:31;10.88;;;9.77;;
3081;SDS011;1551;51.046;7.010;2024-03-06T15:40:20;10.50;;;9.40;;
3081;SDS011;1551;51.046;7.010;2024-03-06T15:43:10;14.98;;;13.38;;
3081;SDS011;1551;51.046;7.010;2024-03-06T15:45:59;12.43;;;11.13;;
3081;SDS011;1551;51.046;7.010;2024-03-06T15:48:48;12.98;;;11.38;;
3081;SDS011;1551;51.046;7.010;2024-03-06T15:51:38;15.07;;;12.32;;
3081;SDS011;1551;51.046;7.010;2024-03-06T15:54:26;14.50;;;12.10;;
3081;SDS011;1551;51.046;7.010;2024-03-06T15:57:15;16.00;;;12.80;;
3081;SDS011;1551;51.046;7.010;2024-03-06T16:00:07;17.70;;;13.70;;
3081;SDS011;1551;51.046;7.010;2024-03-06T16:02:59;19.33;;;16.25;;
3081;SDS011;1551;51.046;7.010;2024-03-06T16:05:47;19.33;;;14.48;;
3081;SDS011;1551;51.046;7.010;2024-03-06T16:08:37;17.10;;;14.93;;
3081;SDS011;1551;51.046;7.010;2024-03-06T16:11:26;19.58;;;14.05;;
3081;SDS011;1551;51.046;7.010;2024-03-06T16:14:17;18.67;;;15.02;;
3081;SDS011;1551;51.046;7.010;2024-03-06T16:17:06;20.20;;;17.58;;
3081;SDS011;1551;51.046;7.010;2024-03-06T16:19:55;16.38;;;14.50;;
3081;SDS011;1551;51.046;7.010;2024-03-06T16:22:44;19.63;;;16.30;;
3081;SDS011;1551;51.046;7.010;2024-03-06T16:25:33;16.90;;;15.00;;
3081;SDS011;1551;51.046;7.010;2024-03-06T16:28:23;20.65;;;17.90;;
3081;SDS011;1551;51.046;7.010;2024-03-06T16:31:12;17.35;;;14.98;;
3081;SDS011;1551;51.046;7.010;2024-03-06T16:34:02;17.43;;;15.10;;
3081;SDS011;1551;51.046;7.010;2024-03-06T16:36:51;18.40;;;15.50;;
3081;SDS011;1551;51.046;7.010;2024-03-06T16:39:40;17.63;;;14.00;;
3081;SDS011;1551;51.046;7.010;2024-03-06T16:42:30;20.85;;;17.20;;
3081;SDS011;1551;51.046;7.010;2024-03-06T16:45:18;20.27;;;15.60;;
3081;SDS011;1551;51.046;7.010;2024-03-06T16:48:07;20.00;;;16.05;;
3081;SDS011;1551;51.046;7.010;2024-03-06T16:50:56;18.20;;;16.17;;
3081;SDS011;1551;51.046;7.010;2024-03-06T16:53:46;17.73;;;15.82;;
3081;SDS011;1551;51.046;7.010;2024-03-06T16:56:35;21.27;;;16.48;;
3081;SDS011;1551;51.046;7.010;2024-03-06T16:59:24;18.27;;;15.45;;
3081;SDS011;1551;51.046;7.010;2024-03-06T17:02:13;25.00;;;22.63;;
3081;SDS011;1551;51.046;7.010;2024-03-06T17:05:02;19.55;;;16.50;;
3081;SDS011;1551;51.046;7.010;2024-03-06T17:07:51;20.30;;;15.82;;
3081;SDS011;1551;51.046;7.010;2024-03-06T17:10:40;18.10;;;15.25;;
3081;SDS011;1551;51.046;7.010;2024-03-06T17:13:29;18.02;;;16.10;;
3081;SDS011;1551;51.046;7.010;2024-03-06T17:16:18;19.55;;;15.90;;